Time;durP1;ratioP1;P1;durP2;ratioP2;P2;SDS_P1;SDS_P2;PMS_P1;PMS_P2;Temp;Humidity;BMP_temperature;BMP_pressure;BME280_temperature;BME280_humidity;BME280_pressure;Samples;Min_cycle;Max_cycle;Signal;HPM_P1;HPM_P2
2022/10/06 00:01:12;;;;;;;0.97;0.70;;;15.40;99.90;;;;;;5012895;28;20605;-51
2022/10/06 00:03:40;;;;;;;2.37;0.70;;;15.40;99.90;;;;;;5012979;28;20275;-53
2022/10/06 00:06:11;;;;;;;3.03;0.90;;;15.40;99.90;;;;;;5013025;28;20225;-50
2022/10/06 00:08:40;;;;;;;2.87;0.60;;;15.30;99.90;;;;;;5013641;28;20320;-51
2022/10/06 00:11:09;;;;;;;2.13;0.80;;;15.30;99.90;;;;;;5013211;28;20299;-51
2022/10/06 00:13:37;;;;;;;1.07;0.67;;;15.30;99.90;;;;;;5013036;28;20229;-51
2022/10/06 00:16:11;;;;;;;1.43;0.70;;;15.20;99.90;;;;;;5013251;28;20230;-51
2022/10/06 00:18:39;;;;;;;1.00;0.60;;;15.20;99.90;;;;;;5012957;28;20234;-50
2022/10/06 00:21:07;;;;;;;2.53;0.70;;;15.20;99.90;;;;;;5011797;28;20225;-49
2022/10/06 00:23:35;;;;;;;1.77;0.80;;;15.10;99.90;;;;;;5012994;28;20283;-51
2022/10/06 00:26:04;;;;;;;1.40;0.60;;;15.10;99.90;;;;;;5013452;28;20287;-51
2022/10/06 00:28:32;;;;;;;1.87;0.60;;;15.10;99.90;;;;;;5012424;28;20217;-51
2022/10/06 00:31:01;;;;;;;1.80;0.80;;;15.10;99.90;;;;;;5011525;28;20244;-52
2022/10/06 00:33:31;;;;;;;0.70;0.60;;;15.10;99.90;;;;;;5012981;28;20232;-49
2022/10/06 00:35:59;;;;;;;2.10;0.70;;;15.10;99.90;;;;;;5013602;28;20677;-49
2022/10/06 00:38:28;;;;;;;1.33;0.73;;;15.10;99.90;;;;;;5011436;28;20224;-49
2022/10/06 00:40:56;;;;;;;0.97;0.50;;;15.10;99.90;;;;;;5012715;28;20225;-50
2022/10/06 00:43:47;;;;;;;1.40;0.70;;;15.10;99.90;;;;;;5013270;28;20693;-51
2022/10/06 00:46:22;;;;;;;2.77;0.87;;;15.10;99.90;;;;;;5011629;28;20225;-53
2022/10/06 00:48:59;;;;;;;0.80;0.60;;;15.10;99.90;;;;;;5011908;28;20587;-47
2022/10/06 00:51:30;;;;;;;1.40;0.60;;;15.00;99.90;;;;;;5011630;28;20756;-52
2022/10/06 00:54:00;;;;;;;1.67;0.50;;;15.00;99.90;;;;;;5012436;28;20283;-52
2022/10/06 00:56:28;;;;;;;1.30;0.70;;;15.00;99.90;;;;;;5012451;28;20585;-51
2022/10/06 00:58:56;;;;;;;1.27;0.60;;;14.90;99.90;;;;;;5012484;28;20218;-51
2022/10/06 01:01:26;;;;;;;2.10;0.60;;;14.90;99.90;;;;;;5011166;28;20736;-50
2022/10/06 01:04:03;;;;;;;3.23;0.97;;;14.90;99.90;;;;;;5011266;28;20225;-51
2022/10/06 01:06:45;;;;;;;2.87;0.73;;;14.90;99.90;;;;;;5027394;28;20302;-52
2022/10/06 01:09:15;;;;;;;2.40;0.80;;;14.80;99.90;;;;;;5011256;28;20255;-51
2022/10/06 01:11:44;;;;;;;2.63;0.60;;;14.80;99.90;;;;;;5011017;28;20229;-51
2022/10/06 01:14:12;;;;;;;2.77;0.60;;;14.80;99.90;;;;;;5011957;28;20252;-51
2022/10/06 01:16:44;;;;;;;3.17;0.70;;;14.70;99.90;;;;;;5011037;28;20236;-49
2022/10/06 01:19:25;;;;;;;3.77;0.70;;;14.70;99.90;;;;;;5012314;28;20689;-51
2022/10/06 01:21:55;;;;;;;2.83;0.70;;;14.70;99.90;;;;;;5012722;28;20233;-51
2022/10/06 01:24:24;;;;;;;2.23;0.90;;;14.70;99.90;;;;;;5012387;28;20267;-51
2022/10/06 01:26:53;;;;;;;2.00;0.87;;;14.60;99.90;;;;;;5011991;28;20244;-51
2022/10/06 01:29:21;;;;;;;2.93;0.70;;;14.60;99.90;;;;;;5012581;28;20228;-49
2022/10/06 01:31:50;;;;;;;2.93;0.70;;;14.60;99.90;;;;;;5011674;28;20290;-50
2022/10/06 01:34:18;;;;;;;4.27;0.80;;;14.60;99.90;;;;;;5014454;28;20224;-51
2022/10/06 01:36:46;;;;;;;1.83;0.50;;;14.60;99.90;;;;;;5016254;28;20642;-51
2022/10/06 01:39:14;;;;;;;1.50;0.70;;;14.50;99.90;;;;;;5016034;28;20213;-50
2022/10/06 01:41:46;;;;;;;4.53;0.87;;;14.50;99.90;;;;;;5015888;28;20691;-51
2022/10/06 01:44:15;;;;;;;2.53;0.70;;;14.40;99.90;;;;;;5012742;28;20228;-52
2022/10/06 01:46:43;;;;;;;2.13;0.60;;;14.40;99.90;;;;;;5016267;28;20588;-51
2022/10/06 01:49:11;;;;;;;3.20;0.80;;;14.50;99.90;;;;;;5019531;28;20222;-52
2022/10/06 01:51:39;;;;;;;2.90;0.80;;;14.50;99.90;;;;;;5005652;28;20221;-53
2022/10/06 01:54:07;;;;;;;3.13;0.90;;;14.40;99.90;;;;;;5016039;28;20584;-49
2022/10/06 01:56:35;;;;;;;3.60;1.00;;;14.40;99.90;;;;;;5015676;28;20233;-52
2022/10/06 01:59:05;;;;;;;4.97;1.00;;;14.40;99.90;;;;;;5015349;28;20217;-50
2022/10/06 02:01:34;;;;;;;3.83;0.83;;;14.40;99.90;;;;;;5014129;28;20232;-49
2022/10/06 02:04:02;;;;;;;2.80;0.80;;;14.40;99.90;;;;;;5014847;28;20235;-50
2022/10/06 02:06:31;;;;;;;3.03;0.80;;;14.40;99.90;;;;;;5015897;28;20220;-51
2022/10/06 02:09:00;;;;;;;2.90;0.93;;;14.30;99.90;;;;;;5014725;28;20228;-49
2022/10/06 02:11:29;;;;;;;2.50;0.90;;;14.30;99.90;;;;;;5014132;28;20237;-51
2022/10/06 02:13:58;;;;;;;3.70;1.10;;;14.30;99.90;;;;;;5014561;28;20229;-52
2022/10/06 02:16:27;;;;;;;2.60;1.10;;;14.30;99.90;;;;;;5015708;28;20570;-51
2022/10/06 02:18:55;;;;;;;3.27;1.10;;;14.30;99.90;;;;;;5014362;28;20226;-51
2022/10/06 02:21:24;;;;;;;3.93;1.00;;;14.30;99.90;;;;;;5014919;28;20231;-51
2022/10/06 02:23:52;;;;;;;3.57;1.10;;;14.30;99.90;;;;;;5015431;28;20225;-49
2022/10/06 02:26:20;;;;;;;3.20;0.97;;;14.20;99.90;;;;;;5015515;28;20220;-51
2022/10/06 02:28:49;;;;;;;2.97;0.93;;;14.30;99.90;;;;;;5013937;28;20229;-51
2022/10/06 02:31:21;;;;;;;5.97;1.10;;;14.30;99.90;;;;;;5005461;28;20758;-50
2022/10/06 02:33:51;;;;;;;5.50;1.37;;;14.30;99.90;;;;;;5014176;28;20240;-51
2022/10/06 02:36:21;;;;;;;4.33;1.10;;;14.30;99.90;;;;;;5013896;28;20279;-49
2022/10/06 02:38:49;;;;;;;4.10;1.10;;;14.30;99.90;;;;;;5015099;28;20232;-49
2022/10/06 02:41:18;;;;;;;6.23;1.27;;;14.20;99.90;;;;;;5013623;28;20229;-48
2022/10/06 02:43:46;;;;;;;6.17;1.70;;;14.20;99.90;;;;;;5013127;28;20287;-49
2022/10/06 02:46:15;;;;;;;6.77;1.20;;;14.20;99.90;;;;;;5013355;28;20237;-52
2022/10/06 02:48:47;;;;;;;3.63;0.87;;;14.20;99.90;;;;;;5012883;28;20263;-51
2022/10/06 02:51:18;;;;;;;5.07;1.30;;;14.20;99.90;;;;;;5014894;28;20593;-50
2022/10/06 02:53:48;;;;;;;4.57;1.20;;;14.10;99.90;;;;;;5013147;28;20237;-50
2022/10/06 02:56:19;;;;;;;5.53;1.10;;;14.10;99.90;;;;;;5015087;28;20292;-49
2022/10/06 02:58:47;;;;;;;6.20;1.70;;;14.10;99.90;;;;;;5014513;28;20235;-51
2022/10/06 03:01:25;;;;;;;8.77;1.23;;;14.10;99.90;;;;;;5013156;28;20223;-51
2022/10/06 03:03:56;;;;;;;4.53;1.40;;;14.00;99.90;;;;;;5013620;28;20680;-52
2022/10/06 03:06:27;;;;;;;9.80;1.50;;;14.00;99.90;;;;;;5014410;28;20232;-51
2022/10/06 03:09:16;;;;;;;6.10;1.57;;;13.90;99.90;;;;;;5001953;28;20256;-52
2022/10/06 03:11:44;;;;;;;6.50;1.60;;;13.90;99.90;;;;;;5013138;28;20644;-51
2022/10/06 03:14:17;;;;;;;6.73;1.30;;;13.90;99.90;;;;;;5013134;28;20259;-50
2022/10/06 03:16:50;;;;;;;7.97;1.50;;;13.80;99.90;;;;;;5012621;28;20239;-51
2022/10/06 03:19:25;;;;;;;7.13;1.20;;;13.80;99.90;;;;;;5044033;28;20652;-49
2022/10/06 03:21:55;;;;;;;4.33;1.23;;;13.80;99.90;;;;;;5013308;28;20299;-50
2022/10/06 03:24:44;;;;;;;4.83;1.33;;;13.80;99.90;;;;;;5002383;28;20372;-51
2022/10/06 03:27:12;;;;;;;6.73;1.50;;;13.80;99.90;;;;;;5012907;28;20225;-52
2022/10/06 03:29:41;;;;;;;8.07;1.37;;;13.80;99.90;;;;;;5012838;28;20228;-51
2022/10/06 03:32:09;;;;;;;7.47;1.20;;;13.80;99.90;;;;;;5013618;28;20240;-50
2022/10/06 03:34:38;;;;;;;8.07;1.63;;;13.80;99.90;;;;;;5012542;28;20224;-51
2022/10/06 03:37:10;;;;;;;8.30;1.50;;;13.70;99.90;;;;;;5012694;28;20726;-51
2022/10/06 03:39:39;;;;;;;5.27;1.23;;;13.70;99.90;;;;;;5012155;28;20703;-52
2022/10/06 03:42:07;;;;;;;7.33;1.53;;;13.70;99.90;;;;;;5028338;28;20324;-50
2022/10/06 03:44:35;;;;;;;7.40;1.60;;;13.60;99.90;;;;;;5013305;28;20715;-49
2022/10/06 03:47:04;;;;;;;6.40;1.40;;;13.60;99.90;;;;;;5012432;28;20225;-49
2022/10/06 03:49:33;;;;;;;5.17;1.40;;;13.60;99.90;;;;;;5013144;28;20213;-48
2022/10/06 03:52:01;;;;;;;8.47;1.50;;;13.60;99.90;;;;;;5014140;28;20221;-49
2022/10/06 03:54:35;;;;;;;5.30;1.63;;;13.60;99.90;;;;;;5011258;28;20620;-50
2022/10/06 03:57:03;;;;;;;5.93;1.40;;;13.60;99.90;;;;;;5013584;28;20232;-51
2022/10/06 03:59:33;;;;;;;6.50;1.43;;;13.50;99.90;;;;;;5011932;28;20220;-51
2022/10/06 04:02:04;;;;;;;9.50;1.60;;;13.50;99.90;;;;;;5011589;28;20330;-50
2022/10/06 04:04:36;;;;;;;8.00;1.77;;;13.50;99.90;;;;;;5012141;28;20360;-51
2022/10/06 04:07:09;;;;;;;8.30;1.30;;;13.50;99.90;;;;;;5011959;28;20248;-50
2022/10/06 04:09:40;;;;;;;5.73;1.20;;;13.40;99.90;;;;;;5011971;28;20248;-51
2022/10/06 04:12:10;;;;;;;6.97;1.40;;;13.40;99.90;;;;;;5012160;28;20660;-49
2022/10/06 04:14:39;;;;;;;7.00;1.70;;;13.40;99.90;;;;;;5012000;28;20271;-51
2022/10/06 04:17:08;;;;;;;7.07;1.57;;;13.40;99.90;;;;;;5011609;28;20630;-51
2022/10/06 04:19:39;;;;;;;10.23;1.53;;;13.40;99.90;;;;;;5011444;28;20247;-51
2022/10/06 04:22:07;;;;;;;5.53;1.70;;;13.40;99.90;;;;;;5011842;28;20696;-51
2022/10/06 04:24:36;;;;;;;8.30;1.63;;;13.30;99.90;;;;;;5011661;28;20232;-49
2022/10/06 04:30:07;;;;;;;6.43;1.17;;;13.30;99.90;;;;;;4979550;28;20242;-51
2022/10/06 04:32:35;;;;;;;8.03;2.20;;;13.30;99.90;;;;;;5006783;28;20582;-50
2022/10/06 04:35:04;;;;;;;9.43;1.33;;;13.30;99.90;;;;;;5011506;28;20239;-49
2022/10/06 04:37:32;;;;;;;7.03;1.27;;;13.30;99.90;;;;;;5011428;28;20260;-50
2022/10/06 04:40:01;;;;;;;7.03;1.40;;;13.20;99.90;;;;;;5011148;28;20597;-51
2022/10/06 04:42:32;;;;;;;5.07;1.07;;;13.20;99.90;;;;;;5010871;28;20233;-49
2022/10/06 04:45:06;;;;;;;11.73;2.03;;;13.20;99.90;;;;;;5033230;28;20269;-50
2022/10/06 04:47:35;;;;;;;8.60;2.00;;;13.20;99.90;;;;;;5006328;28;20616;-51
2022/10/06 04:50:04;;;;;;;9.47;1.63;;;13.20;99.90;;;;;;5011425;28;20229;-52
2022/10/06 04:52:32;;;;;;;5.47;1.30;;;13.20;99.90;;;;;;5012620;28;20221;-49
2022/10/06 04:55:00;;;;;;;8.70;1.67;;;13.20;99.90;;;;;;5012703;28;20236;-51
2022/10/06 04:57:29;;;;;;;8.57;2.17;;;13.10;99.90;;;;;;5011337;28;20237;-51
2022/10/06 05:02:46;;;;;;;6.90;1.57;;;13.10;99.90;;;;;;5009443;28;20245;-50
2022/10/06 05:05:14;;;;;;;3.90;1.27;;;13.10;99.90;;;;;;5008611;28;20224;-51
2022/10/06 05:07:43;;;;;;;9.80;1.97;;;13.10;99.90;;;;;;5003967;28;20222;-50
2022/10/06 05:10:13;;;;;;;9.93;2.00;;;13.00;99.90;;;;;;5025764;28;20236;-48
2022/10/06 05:12:41;;;;;;;9.10;1.83;;;13.00;99.90;;;;;;5012784;28;20230;-50
2022/10/06 05:15:11;;;;;;;10.57;1.80;;;13.00;99.90;;;;;;5012644;28;20235;-50
2022/10/06 05:17:39;;;;;;;6.33;1.77;;;13.00;99.90;;;;;;5011182;28;20229;-52
2022/10/06 05:20:09;;;;;;;7.50;1.50;;;13.00;99.90;;;;;;5011354;28;20588;-49
2022/10/06 05:22:38;;;;;;;7.67;1.37;;;13.00;99.90;;;;;;5011399;28;20647;-51
2022/10/06 05:25:07;;;;;;;9.33;1.83;;;13.00;99.90;;;;;;5011501;28;20643;-51
2022/10/06 05:27:35;;;;;;;6.70;1.30;;;13.00;99.90;;;;;;5011467;28;20319;-50
2022/10/06 05:30:04;;;;;;;7.90;2.20;;;12.90;99.90;;;;;;5011295;28;20232;-51
2022/10/06 05:32:33;;;;;;;7.70;1.80;;;12.90;99.90;;;;;;5010470;28;20232;-51
2022/10/06 05:35:04;;;;;;;6.77;1.40;;;12.90;99.90;;;;;;5011122;28;20291;-49
2022/10/06 05:37:32;;;;;;;9.67;1.90;;;12.90;99.90;;;;;;5012339;28;20611;-52
2022/10/06 05:40:01;;;;;;;9.73;1.60;;;12.90;99.90;;;;;;5011215;28;20599;-50
2022/10/06 05:42:30;;;;;;;8.87;1.80;;;12.90;99.90;;;;;;5011119;28;20316;-49
2022/10/06 05:44:59;;;;;;;10.83;1.70;;;12.90;99.90;;;;;;5011598;28;20239;-51
2022/10/06 05:47:27;;;;;;;8.37;1.73;;;12.90;99.90;;;;;;5010943;28;20617;-48
2022/10/06 05:49:57;;;;;;;8.87;1.47;;;12.80;99.90;;;;;;5011022;28;20230;-49
2022/10/06 05:52:25;;;;;;;10.90;2.00;;;12.80;99.90;;;;;;5012435;28;20300;-51
2022/10/06 05:54:53;;;;;;;9.27;2.13;;;12.80;99.90;;;;;;5011204;28;20331;-51
2022/10/06 05:57:21;;;;;;;5.27;1.60;;;12.90;99.90;;;;;;5010289;28;20242;-49
2022/10/06 05:59:49;;;;;;;6.87;1.60;;;12.80;99.90;;;;;;5010830;28;20224;-51
2022/10/06 06:02:18;;;;;;;7.83;1.70;;;12.90;99.90;;;;;;5010013;28;20232;-50
2022/10/06 06:04:46;;;;;;;5.40;1.50;;;12.90;99.90;;;;;;5010514;28;20237;-50
2022/10/06 06:07:16;;;;;;;8.97;2.30;;;12.90;99.90;;;;;;5012597;28;20303;-51
2022/10/06 06:09:46;;;;;;;10.07;2.23;;;12.90;99.90;;;;;;5010818;28;20943;-51
2022/10/06 06:12:15;;;;;;;8.40;2.17;;;13.00;99.90;;;;;;5044425;28;20229;-52
2022/10/06 06:17:55;;;;;;;10.40;1.70;;;13.00;99.90;;;;;;5007784;28;20235;-48
2022/10/06 06:20:24;;;;;;;6.27;1.50;;;13.10;99.90;;;;;;5011507;28;20704;-49
2022/10/06 06:22:53;;;;;;;10.97;1.73;;;13.00;99.90;;;;;;5012834;28;20235;-50
2022/10/06 06:25:25;;;;;;;9.80;2.03;;;13.00;99.90;;;;;;5012759;28;20227;-52
2022/10/06 06:27:55;;;;;;;9.27;1.93;;;13.10;99.90;;;;;;5013308;28;20221;-50
2022/10/06 06:30:24;;;;;;;9.20;1.80;;;13.10;99.90;;;;;;5009355;28;20224;-51
2022/10/06 06:32:58;;;;;;;11.23;1.73;;;13.20;99.90;;;;;;5013598;28;20231;-50
2022/10/06 06:35:27;;;;;;;7.83;1.50;;;13.20;99.90;;;;;;5008792;28;20231;-51
2022/10/06 06:37:58;;;;;;;10.57;1.67;;;13.30;99.90;;;;;;5014107;28;20240;-50
2022/10/06 06:40:26;;;;;;;5.70;1.50;;;13.40;99.90;;;;;;5028108;28;20636;-49
2022/10/06 06:42:54;;;;;;;5.20;1.47;;;13.50;99.90;;;;;;5012470;28;20265;-48
2022/10/06 06:45:40;;;;;;;8.07;2.07;;;13.60;99.90;;;;;;5013304;28;20260;-50
2022/10/06 06:48:34;;;;;;;7.10;1.70;;;13.60;99.90;;;;;;5010647;28;20236;-49
2022/10/06 06:51:04;;;;;;;7.33;1.73;;;13.70;99.90;;;;;;5013351;28;20253;-51
2022/10/06 06:53:34;;;;;;;9.30;2.00;;;13.70;99.90;;;;;;5013003;28;20736;-50
2022/10/06 06:56:03;;;;;;;5.10;1.40;;;13.80;99.90;;;;;;5015639;28;20227;-48
2022/10/06 06:58:33;;;;;;;8.40;2.10;;;14.00;99.90;;;;;;5013477;28;20267;-50
2022/10/06 07:01:06;;;;;;;8.67;1.70;;;14.00;99.90;;;;;;5013239;28;20236;-51
2022/10/06 07:03:35;;;;;;;7.27;1.70;;;14.10;99.90;;;;;;5012753;28;20244;-51
2022/10/06 07:06:25;;;;;;;7.53;1.60;;;14.20;99.90;;;;;;5007190;28;20232;-50
2022/10/06 07:08:58;;;;;;;8.53;1.90;;;14.30;99.90;;;;;;5013756;28;20527;-50
2022/10/06 07:11:29;;;;;;;8.17;1.60;;;14.50;99.90;;;;;;5013229;28;20743;-48
2022/10/06 07:14:00;;;;;;;9.77;2.27;;;14.50;99.90;;;;;;5046420;28;20237;-48
2022/10/06 07:25:10;;;;;;;7.60;1.90;;;14.90;99.90;;;;;;5013499;28;20224;-51
2022/10/06 07:27:43;;;;;;;8.43;1.60;;;15.00;99.90;;;;;;5028193;28;20316;-49
2022/10/06 07:30:18;;;;;;;10.57;2.00;;;15.10;99.90;;;;;;5005309;28;20718;-48
2022/10/06 07:32:51;;;;;;;6.50;1.47;;;15.20;99.90;;;;;;5014621;28;20680;-50
2022/10/06 07:35:23;;;;;;;9.70;1.50;;;15.30;99.90;;;;;;5012670;28;20237;-49
2022/10/06 07:37:52;;;;;;;5.20;1.43;;;15.30;99.90;;;;;;4999372;28;20321;-51
2022/10/06 07:40:24;;;;;;;6.17;1.60;;;15.50;99.90;;;;;;5006493;28;20231;-49
2022/10/06 07:42:52;;;;;;;8.23;2.10;;;15.70;99.90;;;;;;5014291;28;20241;-51
2022/10/06 07:45:44;;;;;;;8.60;1.77;;;15.70;99.90;;;;;;5006655;28;20229;-49
2022/10/06 07:48:26;;;;;;;9.50;1.80;;;15.70;99.90;;;;;;5003690;28;20221;-49
2022/10/06 07:50:58;;;;;;;11.03;1.83;;;15.80;99.90;;;;;;5004530;28;20575;-49
2022/10/06 07:53:30;;;;;;;7.93;2.00;;;16.00;99.90;;;;;;4999795;28;20233;-49
2022/10/06 07:56:09;;;;;;;9.80;1.97;;;16.10;99.90;;;;;;5011011;28;20319;-51
2022/10/06 07:58:43;;;;;;;8.87;1.70;;;16.20;99.90;;;;;;5009107;28;20313;-49
2022/10/06 08:01:12;;;;;;;5.80;1.60;;;16.20;99.90;;;;;;5006920;28;20287;-49
2022/10/06 08:03:42;;;;;;;9.17;1.87;;;16.50;99.90;;;;;;5011769;28;20412;-48
2022/10/06 08:06:14;;;;;;;12.20;2.10;;;16.60;99.90;;;;;;5004402;28;20689;-49
2022/10/06 08:08:44;;;;;;;6.57;1.73;;;16.60;99.90;;;;;;4996535;28;20230;-48
2022/10/06 08:11:22;;;;;;;6.87;1.83;;;16.50;99.90;;;;;;5007255;28;20294;-48
2022/10/06 08:13:51;;;;;;;7.70;1.70;;;16.50;99.90;;;;;;5009412;28;20234;-50
2022/10/06 08:16:21;;;;;;;9.00;1.70;;;16.60;99.90;;;;;;5009923;28;20217;-51
2022/10/06 08:18:52;;;;;;;5.70;1.77;;;16.70;99.90;;;;;;5002366;28;20589;-50
2022/10/06 08:21:21;;;;;;;10.50;1.90;;;16.80;99.90;;;;;;5006419;28;20221;-52
2022/10/06 08:23:50;;;;;;;6.33;1.67;;;16.90;99.90;;;;;;5008423;28;20755;-52
2022/10/06 08:26:21;;;;;;;7.43;1.77;;;16.90;99.90;;;;;;5007824;28;20940;-51
2022/10/06 08:28:51;;;;;;;6.30;1.20;;;16.80;99.90;;;;;;5008035;28;20229;-48
2022/10/06 08:31:21;;;;;;;9.43;2.00;;;16.90;99.90;;;;;;5013704;28;20237;-50
2022/10/06 08:33:53;;;;;;;8.40;2.03;;;17.10;99.90;;;;;;5016450;28;20232;-50
2022/10/06 08:36:21;;;;;;;7.33;1.60;;;17.30;99.90;;;;;;5024713;28;20240;-48
2022/10/06 08:38:55;;;;;;;7.57;1.50;;;17.40;99.90;;;;;;5009986;28;20233;-50
2022/10/06 08:41:28;;;;;;;7.93;1.70;;;17.40;99.90;;;;;;5009634;28;20747;-49
2022/10/06 08:44:01;;;;;;;8.80;2.60;;;17.30;99.90;;;;;;5013582;28;20224;-49
2022/10/06 08:46:35;;;;;;;7.53;2.07;;;17.20;99.90;;;;;;5018055;28;20719;-51
2022/10/06 08:49:04;;;;;;;13.73;2.20;;;17.30;99.90;;;;;;5014985;28;20633;-49
2022/10/06 08:51:49;;;;;;;9.57;1.63;;;17.50;99.90;;;;;;5017229;28;20234;-48
2022/10/06 08:54:28;;;;;;;7.93;2.00;;;17.80;99.90;;;;;;5023074;28;20691;-48
2022/10/06 08:57:04;;;;;;;8.47;2.10;;;17.50;99.90;;;;;;5011745;28;20229;-50
2022/10/06 08:59:34;;;;;;;8.90;2.23;;;17.40;99.90;;;;;;5006439;28;20240;-50
2022/10/06 09:02:04;;;;;;;8.93;1.90;;;17.50;99.90;;;;;;5016125;28;20762;-50
2022/10/06 09:04:33;;;;;;;9.07;2.27;;;17.70;99.90;;;;;;5026995;28;20281;-50
2022/10/06 09:07:04;;;;;;;7.53;1.67;;;17.80;99.90;;;;;;5023571;28;20757;-52
2022/10/06 09:09:57;;;;;;;10.50;2.00;;;17.70;99.90;;;;;;5019749;28;20217;-51
2022/10/06 09:12:32;;;;;;;6.73;1.50;;;17.90;99.90;;;;;;5021400;28;20238;-49
2022/10/06 09:15:12;;;;;;;7.73;1.90;;;17.90;99.90;;;;;;5011096;28;20715;-49
2022/10/06 09:17:46;;;;;;;10.07;1.93;;;17.90;99.90;;;;;;5016920;28;20224;-49
2022/10/06 09:20:19;;;;;;;8.93;2.30;;;17.70;99.90;;;;;;5016878;28;20215;-51
2022/10/06 09:22:50;;;;;;;10.83;1.90;;;17.70;99.90;;;;;;5013966;28;20873;-50
2022/10/06 09:25:20;;;;;;;8.13;1.83;;;17.60;99.90;;;;;;5007368;28;20247;-51
2022/10/06 09:27:54;;;;;;;8.00;1.80;;;17.70;99.90;;;;;;5015842;28;20238;-50
2022/10/06 09:30:23;;;;;;;9.30;1.70;;;17.90;99.90;;;;;;5017668;28;20233;-48
2022/10/06 09:32:58;;;;;;;7.47;1.67;;;18.00;99.90;;;;;;5019480;28;20713;-49
2022/10/06 09:35:28;;;;;;;8.47;2.27;;;17.90;99.90;;;;;;5016711;28;20696;-49
2022/10/06 09:38:02;;;;;;;6.77;1.60;;;17.90;99.90;;;;;;5013122;28;20632;-50
2022/10/06 09:40:47;;;;;;;8.73;1.83;;;18.00;99.90;;;;;;5015464;28;20588;-52
2022/10/06 09:43:24;;;;;;;10.70;2.07;;;18.00;99.90;;;;;;5013907;28;20225;-49
2022/10/06 09:45:53;;;;;;;9.27;1.93;;;18.20;99.90;;;;;;5014792;28;20718;-48
2022/10/06 09:48:23;;;;;;;6.40;1.70;;;18.20;99.90;;;;;;5009241;28;20230;-51
2022/10/06 09:51:12;;;;;;;6.57;1.70;;;18.20;99.90;;;;;;5020124;28;20316;-49
2022/10/06 09:53:40;;;;;;;12.57;2.67;;;18.50;99.90;;;;;;5021886;28;20243;-49
2022/10/06 09:56:17;;;;;;;10.70;1.87;;;18.50;99.90;;;;;;5021762;28;20232;-48
2022/10/06 09:58:59;;;;;;;8.23;1.80;;;18.20;99.90;;;;;;5017464;28;20226;-51
2022/10/06 10:01:30;;;;;;;9.17;1.77;;;18.30;99.90;;;;;;5009668;28;20231;-48
2022/10/06 10:04:02;;;;;;;9.07;2.37;;;18.20;99.90;;;;;;5021939;28;20244;-53
2022/10/06 10:06:48;;;;;;;7.00;1.70;;;18.10;99.90;;;;;;5018865;28;20231;-49
2022/10/06 10:09:25;;;;;;;5.43;1.70;;;17.90;99.90;;;;;;5018489;28;20229;-52
2022/10/06 10:12:30;;;;;;;7.50;2.30;;;18.20;99.90;;;;;;5021952;28;20739;-48
2022/10/06 10:15:02;;;;;;;8.40;2.27;;;18.70;99.90;;;;;;5017307;28;20230;-51
2022/10/06 10:17:42;;;;;;;5.00;1.57;;;18.70;99.90;;;;;;5010374;28;20627;-52
2022/10/06 10:20:26;;;;;;;8.07;2.13;;;18.60;99.90;;;;;;5017041;28;20245;-50
2022/10/06 10:22:57;;;;;;;7.27;1.80;;;18.80;99.90;;;;;;5013041;28;20238;-51
2022/10/06 10:25:40;;;;;;;11.97;2.33;;;19.20;99.90;;;;;;5011793;28;20698;-51
2022/10/06 10:28:20;;;;;;;9.97;2.03;;;19.30;99.90;;;;;;5015676;28;20227;-51
2022/10/06 10:30:59;;;;;;;9.30;1.83;;;19.40;99.90;;;;;;5025532;28;20750;-50
2022/10/06 10:33:40;;;;;;;7.70;1.67;;;19.30;99.90;;;;;;5020547;28;20218;-49
2022/10/06 10:36:27;;;;;;;5.80;1.83;;;19.10;99.90;;;;;;5023114;28;20234;-51
2022/10/06 10:38:55;;;;;;;7.27;1.70;;;19.20;99.90;;;;;;5013786;28;20243;-52
2022/10/06 10:41:28;;;;;;;8.00;1.80;;;19.30;99.90;;;;;;5016449;28;20299;-50
2022/10/06 10:44:05;;;;;;;8.13;1.80;;;19.40;99.90;;;;;;5015631;28;20242;-48
2022/10/06 10:46:40;;;;;;;6.93;1.70;;;19.40;99.90;;;;;;5011002;28;20291;-51
2022/10/06 10:49:13;;;;;;;7.80;1.80;;;19.60;99.90;;;;;;5019730;28;20219;-51
2022/10/06 10:51:45;;;;;;;8.50;1.50;;;19.70;99.90;;;;;;5021441;28;20234;-49
2022/10/06 10:54:17;;;;;;;7.57;1.77;;;19.90;99.90;;;;;;5022509;28;20649;-52
2022/10/06 10:56:47;;;;;;;6.60;1.47;;;20.20;99.90;;;;;;5017436;28;20304;-49
2022/10/06 10:59:20;;;;;;;8.03;1.80;;;20.10;99.90;;;;;;5016366;28;20234;-50
2022/10/06 11:01:55;;;;;;;7.20;1.70;;;20.00;99.90;;;;;;5018874;28;20247;-50
2022/10/06 11:04:23;;;;;;;5.77;1.60;;;20.10;99.90;;;;;;5017173;28;20655;-49
2022/10/06 11:07:12;;;;;;;4.60;1.20;;;20.00;99.90;;;;;;5018605;28;20240;-51
2022/10/06 11:09:47;;;;;;;4.90;1.40;;;20.30;99.90;;;;;;5008791;28;20244;-50
2022/10/06 11:12:26;;;;;;;4.80;1.60;;;20.30;99.90;;;;;;5017614;28;20706;-52
2022/10/06 11:14:58;;;;;;;6.03;1.43;;;20.30;99.90;;;;;;5012482;28;20696;-49
2022/10/06 11:17:50;;;;;;;5.73;1.20;;;20.10;99.90;;;;;;5016937;28;20227;-50
2022/10/06 11:20:36;;;;;;;4.80;1.40;;;19.70;99.90;;;;;;5008427;28;20246;-50
2022/10/06 11:23:23;;;;;;;4.97;1.23;;;19.10;99.90;;;;;;5011512;28;20933;-49
2022/10/06 11:26:08;;;;;;;5.77;1.50;;;18.70;99.90;;;;;;5016037;28;20730;-51
2022/10/06 11:28:43;;;;;;;7.33;1.53;;;18.90;99.90;;;;;;5017398;28;20487;-53
2022/10/06 11:31:24;;;;;;;7.87;1.50;;;19.00;99.90;;;;;;5014726;28;20258;-49
2022/10/06 11:33:55;;;;;;;7.67;1.53;;;19.30;99.90;;;;;;5015639;28;21590;-53
2022/10/06 11:36:34;;;;;;;7.03;1.77;;;19.50;99.90;;;;;;5017493;28;20733;-51
2022/10/06 11:39:11;;;;;;;5.80;1.37;;;19.40;99.90;;;;;;5017155;28;21257;-49
2022/10/06 11:41:45;;;;;;;5.70;1.57;;;19.40;99.90;;;;;;5015592;28;20234;-52
2022/10/06 11:44:19;;;;;;;8.97;1.70;;;19.30;99.90;;;;;;5018662;28;20260;-52
2022/10/06 11:46:52;;;;;;;7.67;1.70;;;19.10;99.90;;;;;;5017298;28;20683;-50
2022/10/06 11:49:50;;;;;;;6.40;1.37;;;19.10;99.90;;;;;;5012915;28;20241;-50
2022/10/06 11:52:43;;;;;;;5.03;1.30;;;18.90;99.90;;;;;;5019219;28;20235;-52
2022/10/06 11:55:22;;;;;;;8.20;1.60;;;18.90;99.90;;;;;;5018071;28;20254;-51
2022/10/06 11:58:11;;;;;;;6.60;1.57;;;18.70;99.90;;;;;;5013576;28;20231;-54
2022/10/06 12:01:00;;;;;;;5.47;1.50;;;18.70;99.90;;;;;;5010938;28;20792;-52
2022/10/06 12:03:46;;;;;;;7.53;1.70;;;18.60;99.90;;;;;;5013165;28;20275;-51
2022/10/06 12:06:57;;;;;;;5.87;1.47;;;18.50;99.90;;;;;;5025057;28;20232;-48
2022/10/06 12:10:13;;;;;;;9.10;1.70;;;18.60;99.90;;;;;;5012629;28;20237;-51
2022/10/06 12:13:00;;;;;;;9.63;2.03;;;18.80;99.90;;;;;;5014502;28;20706;-51
2022/10/06 12:16:00;;;;;;;6.57;1.50;;;18.70;99.90;;;;;;5016121;28;20572;-50
2022/10/06 12:19:02;;;;;;;6.43;1.60;;;18.60;99.90;;;;;;5007941;28;20213;-52
2022/10/06 12:21:44;;;;;;;5.40;1.07;;;18.40;99.90;;;;;;5014153;28;20232;-51
2022/10/06 12:24:30;;;;;;;5.83;1.43;;;18.50;99.90;;;;;;5009963;28;20224;-50
2022/10/06 12:27:36;;;;;;;5.30;1.37;;;18.50;99.90;;;;;;5016265;28;20224;-51
2022/10/06 12:30:19;;;;;;;5.03;1.40;;;18.50;99.90;;;;;;5009213;28;20296;-52
2022/10/06 12:32:53;;;;;;;5.00;1.30;;;18.50;99.90;;;;;;5003672;28;20632;-52
2022/10/06 12:35:32;;;;;;;5.23;1.30;;;18.40;99.90;;;;;;5005916;28;20225;-50
2022/10/06 12:38:04;;;;;;;6.53;1.60;;;18.40;99.90;;;;;;5006386;28;20221;-52
2022/10/06 12:40:53;;;;;;;6.30;1.43;;;18.30;99.90;;;;;;5005551;28;20572;-51
2022/10/06 12:43:33;;;;;;;5.03;1.17;;;18.30;99.90;;;;;;5003110;28;20225;-53
2022/10/06 12:46:11;;;;;;;7.57;1.40;;;18.30;99.90;;;;;;5001604;28;20237;-53
2022/10/06 12:48:44;;;;;;;7.53;1.27;;;18.20;99.90;;;;;;5006058;28;20730;-51
2022/10/06 12:51:29;;;;;;;5.00;1.43;;;18.30;99.90;;;;;;5003039;28;20219;-50
2022/10/06 12:54:07;;;;;;;6.40;1.23;;;18.30;99.90;;;;;;5004005;28;20321;-51
2022/10/06 12:56:38;;;;;;;5.20;1.30;;;18.20;99.90;;;;;;5003223;28;20271;-52
2022/10/06 12:59:24;;;;;;;6.43;1.50;;;18.20;99.90;;;;;;5002779;28;20220;-51
2022/10/06 13:01:56;;;;;;;6.60;1.83;;;18.00;99.90;;;;;;5016088;28;20655;-51
2022/10/06 13:04:34;;;;;;;6.97;1.50;;;18.00;99.90;;;;;;5023950;28;20241;-52
2022/10/06 13:07:08;;;;;;;3.40;1.13;;;18.00;99.90;;;;;;5021763;28;20700;-51
2022/10/06 13:09:37;;;;;;;10.17;1.33;;;18.00;99.90;;;;;;5023682;28;20757;-52
2022/10/06 13:12:23;;;;;;;5.93;1.10;;;18.00;99.90;;;;;;5023249;28;20228;-52
2022/10/06 13:15:22;;;;;;;7.93;1.20;;;18.00;99.90;;;;;;5022625;28;20228;-49
2022/10/06 13:17:54;;;;;;;5.73;0.93;;;18.00;99.90;;;;;;5025208;28;20696;-50
2022/10/06 13:20:36;;;;;;;7.03;1.50;;;17.90;99.90;;;;;;5023292;28;20233;-51
2022/10/06 13:23:22;;;;;;;7.10;1.30;;;17.80;99.90;;;;;;5023445;28;20601;-52
2022/10/06 13:25:54;;;;;;;7.27;1.77;;;17.70;99.90;;;;;;5023119;28;20724;-51
2022/10/06 13:28:39;;;;;;;6.87;1.40;;;17.70;99.90;;;;;;5025800;28;20232;-52
2022/10/06 13:31:18;;;;;;;5.27;1.70;;;17.60;99.90;;;;;;5024426;28;20233;-49
2022/10/06 13:33:50;;;;;;;6.93;1.30;;;17.60;99.90;;;;;;5023887;28;20231;-52
2022/10/06 13:36:19;;;;;;;5.23;1.40;;;17.60;99.90;;;;;;5024562;28;20233;-49